sensor_id;sensor_type;location;lat;lon;timestamp;temperature;humidity
35680;DHT22;21803;53.586;10.040;2022-12-19T00:14:14;16.30;39.70
35680;DHT22;21803;53.586;10.040;2022-12-19T00:16:39;17.30;40.20
35680;DHT22;21803;53.586;10.040;2022-12-19T00:19:05;16.30;39.80
35680;DHT22;21803;53.586;10.040;2022-12-19T00:21:32;16.30;39.80
35680;DHT22;21803;53.586;10.040;2022-12-19T00:23:58;16.30;39.80
35680;DHT22;21803;53.586;10.040;2022-12-19T00:26:26;16.30;39.80
35680;DHT22;21803;53.586;10.040;2022-12-19T00:28:58;16.30;39.80
35680;DHT22;21803;53.586;10.040;2022-12-19T00:31:25;16.30;39.80
35680;DHT22;21803;53.586;10.040;2022-12-19T00:33:51;16.30;39.80
35680;DHT22;21803;53.586;10.040;2022-12-19T00:36:25;16.30;39.80
35680;DHT22;21803;53.586;10.040;2022-12-19T00:38:53;16.30;39.80
35680;DHT22;21803;53.586;10.040;2022-12-19T00:41:24;16.30;39.80
35680;DHT22;21803;53.586;10.040;2022-12-19T00:43:54;16.30;39.80
35680;DHT22;21803;53.586;10.040;2022-12-19T00:46:19;16.30;39.70
35680;DHT22;21803;53.586;10.040;2022-12-19T00:48:45;16.30;39.70
35680;DHT22;21803;53.586;10.040;2022-12-19T00:51:13;16.30;39.80
35680;DHT22;21803;53.586;10.040;2022-12-19T00:53:39;16.30;39.80
35680;DHT22;21803;53.586;10.040;2022-12-19T00:56:08;16.30;39.80
35680;DHT22;21803;53.586;10.040;2022-12-19T00:58:34;16.30;39.70
35680;DHT22;21803;53.586;10.040;2022-12-19T01:01:08;16.30;39.70
35680;DHT22;21803;53.586;10.040;2022-12-19T01:03:34;16.30;39.80
35680;DHT22;21803;53.586;10.040;2022-12-19T01:06:00;16.30;39.80
35680;DHT22;21803;53.586;10.040;2022-12-19T01:08:26;16.30;39.80
35680;DHT22;21803;53.586;10.040;2022-12-19T01:10:51;16.30;39.80
35680;DHT22;21803;53.586;10.040;2022-12-19T01:13:19;16.30;39.80
35680;DHT22;21803;53.586;10.040;2022-12-19T01:15:44;16.30;39.70
35680;DHT22;21803;53.586;10.040;2022-12-19T01:18:11;16.30;39.70
35680;DHT22;21803;53.586;10.040;2022-12-19T01:20:41;16.30;39.70
35680;DHT22;21803;53.586;10.040;2022-12-19T01:23:08;16.30;39.70
35680;DHT22;21803;53.586;10.040;2022-12-19T01:25:35;16.30;39.70
35680;DHT22;21803;53.586;10.040;2022-12-19T01:28:01;16.30;39.70
35680;DHT22;21803;53.586;10.040;2022-12-19T01:30:27;16.30;39.70
35680;DHT22;21803;53.586;10.040;2022-12-19T01:32:53;16.30;39.70
35680;DHT22;21803;53.586;10.040;2022-12-19T01:35:18;16.30;39.70
35680;DHT22;21803;53.586;10.040;2022-12-19T01:37:44;16.30;39.70
35680;DHT22;21803;53.586;10.040;2022-12-19T01:40:12;16.30;39.60
35680;DHT22;21803;53.586;10.040;2022-12-19T01:42:38;16.30;39.60
35680;DHT22;21803;53.586;10.040;2022-12-19T01:50:04;16.30;39.60
35680;DHT22;21803;53.586;10.040;2022-12-19T01:52:30;16.30;39.60
35680;DHT22;21803;53.586;10.040;2022-12-19T01:54:57;16.30;40.00
35680;DHT22;21803;53.586;10.040;2022-12-19T01:57:22;16.30;39.60
35680;DHT22;21803;53.586;10.040;2022-12-19T01:59:51;16.30;39.60
35680;DHT22;21803;53.586;10.040;2022-12-19T02:02:20;16.30;39.60
35680;DHT22;21803;53.586;10.040;2022-12-19T02:04:47;16.30;39.60
35680;DHT22;21803;53.586;10.040;2022-12-19T02:07:15;16.30;40.10
35680;DHT22;21803;53.586;10.040;2022-12-19T02:09:43;16.30;39.50
35680;DHT22;21803;53.586;10.040;2022-12-19T02:12:09;16.30;39.50
35680;DHT22;21803;53.586;10.040;2022-12-19T02:14:35;16.30;39.50
35680;DHT22;21803;53.586;10.040;2022-12-19T02:22:49;16.30;39.50
35680;DHT22;21803;53.586;10.040;2022-12-19T02:25:42;16.30;39.50
35680;DHT22;21803;53.586;10.040;2022-12-19T02:28:41;16.30;39.50
35680;DHT22;21803;53.586;10.040;2022-12-19T02:34:12;16.30;39.50
35680;DHT22;21803;53.586;10.040;2022-12-19T02:36:47;16.20;39.40
35680;DHT22;21803;53.586;10.040;2022-12-19T02:39:22;16.30;39.50
35680;DHT22;21803;53.586;10.040;2022-12-19T02:41:57;16.20;39.50
35680;DHT22;21803;53.586;10.040;2022-12-19T02:44:43;16.20;39.50
35680;DHT22;21803;53.586;10.040;2022-12-19T02:47:10;16.20;40.10
35680;DHT22;21803;53.586;10.040;2022-12-19T02:49:37;16.20;39.50
35680;DHT22;21803;53.586;10.040;2022-12-19T02:52:10;16.30;39.50
35680;DHT22;21803;53.586;10.040;2022-12-19T02:54:37;16.30;39.50
35680;DHT22;21803;53.586;10.040;2022-12-19T03:02:46;16.20;39.40
35680;DHT22;21803;53.586;10.040;2022-12-19T03:05:34;16.30;39.30
35680;DHT22;21803;53.586;10.040;2022-12-19T03:10:53;16.30;39.40
35680;DHT22;21803;53.586;10.040;2022-12-19T03:14:00;16.30;39.40
35680;DHT22;21803;53.586;10.040;2022-12-19T03:16:24;16.30;39.40
35680;DHT22;21803;53.586;10.040;2022-12-19T03:18:51;16.30;39.30
35680;DHT22;21803;53.586;10.040;2022-12-19T03:21:26;16.30;39.40
35680;DHT22;21803;53.586;10.040;2022-12-19T03:23:54;16.30;39.40
35680;DHT22;21803;53.586;10.040;2022-12-19T03:26:23;16.30;39.30
35680;DHT22;21803;53.586;10.040;2022-12-19T03:29:08;16.30;39.40
35680;DHT22;21803;53.586;10.040;2022-12-19T03:31:37;16.30;39.40
35680;DHT22;21803;53.586;10.040;2022-12-19T03:34:14;16.30;39.40
35680;DHT22;21803;53.586;10.040;2022-12-19T03:36:47;16.30;39.30
35680;DHT22;21803;53.586;10.040;2022-12-19T03:39:14;16.30;39.30
35680;DHT22;21803;53.586;10.040;2022-12-19T03:41:42;16.30;39.40
35680;DHT22;21803;53.586;10.040;2022-12-19T03:44:33;16.30;39.40
35680;DHT22;21803;53.586;10.040;2022-12-19T03:47:24;16.30;39.30
35680;DHT22;21803;53.586;10.040;2022-12-19T03:49:52;16.30;39.40
35680;DHT22;21803;53.586;10.040;2022-12-19T03:52:39;16.30;39.40
35680;DHT22;21803;53.586;10.040;2022-12-19T03:55:17;16.30;39.40
35680;DHT22;21803;53.586;10.040;2022-12-19T03:57:55;16.30;39.40
35680;DHT22;21803;53.586;10.040;2022-12-19T04:00:22;16.30;39.50
35680;DHT22;21803;53.586;10.040;2022-12-19T04:02:51;16.20;39.40
35680;DHT22;21803;53.586;10.040;2022-12-19T04:05:20;16.30;39.40
35680;DHT22;21803;53.586;10.040;2022-12-19T04:07:47;16.30;39.40
35680;DHT22;21803;53.586;10.040;2022-12-19T04:10:15;16.30;39.40
35680;DHT22;21803;53.586;10.040;2022-12-19T04:12:52;16.30;39.40
35680;DHT22;21803;53.586;10.040;2022-12-19T04:15:31;16.30;39.40
35680;DHT22;21803;53.586;10.040;2022-12-19T04:17:58;17.30;39.90
35680;DHT22;21803;53.586;10.040;2022-12-19T04:20:27;16.30;39.30
35680;DHT22;21803;53.586;10.040;2022-12-19T04:23:19;16.30;39.30
35680;DHT22;21803;53.586;10.040;2022-12-19T04:25:50;16.30;39.40
35680;DHT22;21803;53.586;10.040;2022-12-19T04:28:21;16.30;39.40
35680;DHT22;21803;53.586;10.040;2022-12-19T04:30:49;16.20;39.30
35680;DHT22;21803;53.586;10.040;2022-12-19T04:33:14;16.30;39.40
35680;DHT22;21803;53.586;10.040;2022-12-19T04:35:40;16.30;39.30
35680;DHT22;21803;53.586;10.040;2022-12-19T04:38:06;16.30;39.30
35680;DHT22;21803;53.586;10.040;2022-12-19T04:40:33;16.30;39.30
35680;DHT22;21803;53.586;10.040;2022-12-19T04:42:58;16.30;39.40
35680;DHT22;21803;53.586;10.040;2022-12-19T04:45:24;16.30;39.40
35680;DHT22;21803;53.586;10.040;2022-12-19T04:47:49;16.30;39.40
35680;DHT22;21803;53.586;10.040;2022-12-19T04:50:15;16.30;39.30
35680;DHT22;21803;53.586;10.040;2022-12-19T04:52:40;16.30;39.30
35680;DHT22;21803;53.586;10.040;2022-12-19T04:55:06;16.30;39.40
35680;DHT22;21803;53.586;10.040;2022-12-19T04:57:32;16.30;39.30
35680;DHT22;21803;53.586;10.040;2022-12-19T04:59:58;16.30;39.30
35680;DHT22;21803;53.586;10.040;2022-12-19T05:02:23;16.30;39.30
35680;DHT22;21803;53.586;10.040;2022-12-19T05:04:49;16.30;39.30
35680;DHT22;21803;53.586;10.040;2022-12-19T05:07:15;16.20;39.30
35680;DHT22;21803;53.586;10.040;2022-12-19T05:09:41;16.30;39.40
35680;DHT22;21803;53.586;10.040;2022-12-19T05:12:06;16.30;39.30
35680;DHT22;21803;53.586;10.040;2022-12-19T05:14:32;16.30;40.00
35680;DHT22;21803;53.586;10.040;2022-12-19T05:16:58;16.30;39.40
35680;DHT22;21803;53.586;10.040;2022-12-19T05:19:23;16.20;39.40
35680;DHT22;21803;53.586;10.040;2022-12-19T05:21:49;16.30;39.40
35680;DHT22;21803;53.586;10.040;2022-12-19T05:24:15;16.30;39.40
35680;DHT22;21803;53.586;10.040;2022-12-19T05:26:40;16.30;39.40
35680;DHT22;21803;53.586;10.040;2022-12-19T05:29:07;16.30;39.40
35680;DHT22;21803;53.586;10.040;2022-12-19T05:31:32;16.30;39.40
35680;DHT22;21803;53.586;10.040;2022-12-19T05:33:58;16.30;39.40
35680;DHT22;21803;53.586;10.040;2022-12-19T05:36:24;16.30;39.40
35680;DHT22;21803;53.586;10.040;2022-12-19T05:38:50;16.30;39.30
35680;DHT22;21803;53.586;10.040;2022-12-19T05:41:18;16.20;39.30
35680;DHT22;21803;53.586;10.040;2022-12-19T05:43:47;16.30;39.40
35680;DHT22;21803;53.586;10.040;2022-12-19T05:46:13;16.30;39.40
35680;DHT22;21803;53.586;10.040;2022-12-19T05:48:39;16.30;39.30
35680;DHT22;21803;53.586;10.040;2022-12-19T05:51:04;16.30;39.40
35680;DHT22;21803;53.586;10.040;2022-12-19T05:53:30;16.30;39.30
35680;DHT22;21803;53.586;10.040;2022-12-19T05:56:22;16.30;39.30
35680;DHT22;21803;53.586;10.040;2022-12-19T05:58:48;16.30;39.40
35680;DHT22;21803;53.586;10.040;2022-12-19T06:01:25;16.30;39.30
35680;DHT22;21803;53.586;10.040;2022-12-19T06:03:51;16.30;39.40
35680;DHT22;21803;53.586;10.040;2022-12-19T06:06:19;16.30;39.40
35680;DHT22;21803;53.586;10.040;2022-12-19T06:08:45;16.30;39.40
35680;DHT22;21803;53.586;10.040;2022-12-19T06:11:12;16.30;39.40
35680;DHT22;21803;53.586;10.040;2022-12-19T06:13:39;16.30;39.40
35680;DHT22;21803;53.586;10.040;2022-12-19T06:16:07;16.30;39.40
35680;DHT22;21803;53.586;10.040;2022-12-19T06:18:34;16.20;39.40
35680;DHT22;21803;53.586;10.040;2022-12-19T06:21:02;16.30;39.40
35680;DHT22;21803;53.586;10.040;2022-12-19T06:23:29;16.30;39.40
35680;DHT22;21803;53.586;10.040;2022-12-19T06:25:59;16.30;39.40
35680;DHT22;21803;53.586;10.040;2022-12-19T06:28:26;16.30;39.40
35680;DHT22;21803;53.586;10.040;2022-12-19T06:30:55;16.30;39.40
35680;DHT22;21803;53.586;10.040;2022-12-19T06:33:21;16.20;39.40
35680;DHT22;21803;53.586;10.040;2022-12-19T06:35:47;16.30;39.40
35680;DHT22;21803;53.586;10.040;2022-12-19T06:38:12;16.20;39.40
35680;DHT22;21803;53.586;10.040;2022-12-19T06:40:44;16.20;39.40
35680;DHT22;21803;53.586;10.040;2022-12-19T06:43:28;16.20;39.40
35680;DHT22;21803;53.586;10.040;2022-12-19T06:45:55;16.30;39.40
35680;DHT22;21803;53.586;10.040;2022-12-19T06:48:21;16.20;39.40
35680;DHT22;21803;53.586;10.040;2022-12-19T06:50:47;16.30;39.50
35680;DHT22;21803;53.586;10.040;2022-12-19T06:53:12;16.30;39.50
35680;DHT22;21803;53.586;10.040;2022-12-19T06:55:38;16.20;39.40
35680;DHT22;21803;53.586;10.040;2022-12-19T06:58:03;16.30;39.40
35680;DHT22;21803;53.586;10.040;2022-12-19T07:00:29;16.30;39.40
35680;DHT22;21803;53.586;10.040;2022-12-19T07:02:56;16.30;39.50
35680;DHT22;21803;53.586;10.040;2022-12-19T07:05:23;16.20;39.40
35680;DHT22;21803;53.586;10.040;2022-12-19T07:07:49;16.30;39.50
35680;DHT22;21803;53.586;10.040;2022-12-19T07:10:14;16.30;40.00
35680;DHT22;21803;53.586;10.040;2022-12-19T07:12:40;16.30;39.40
35680;DHT22;21803;53.586;10.040;2022-12-19T07:15:06;16.30;39.50
35680;DHT22;21803;53.586;10.040;2022-12-19T07:17:32;16.30;39.40
35680;DHT22;21803;53.586;10.040;2022-12-19T07:19:58;16.30;39.40
35680;DHT22;21803;53.586;10.040;2022-12-19T07:22:25;16.30;39.40
35680;DHT22;21803;53.586;10.040;2022-12-19T07:24:53;16.30;39.50
35680;DHT22;21803;53.586;10.040;2022-12-19T07:27:19;16.30;39.40
35680;DHT22;21803;53.586;10.040;2022-12-19T07:29:47;16.30;39.50
35680;DHT22;21803;53.586;10.040;2022-12-19T07:32:13;16.30;39.50
35680;DHT22;21803;53.586;10.040;2022-12-19T07:34:38;16.30;39.50
35680;DHT22;21803;53.586;10.040;2022-12-19T07:37:04;16.30;39.50
35680;DHT22;21803;53.586;10.040;2022-12-19T07:39:29;16.30;39.50
35680;DHT22;21803;53.586;10.040;2022-12-19T07:41:55;16.30;39.50
35680;DHT22;21803;53.586;10.040;2022-12-19T07:44:20;16.30;39.60
35680;DHT22;21803;53.586;10.040;2022-12-19T07:46:46;16.30;39.50
35680;DHT22;21803;53.586;10.040;2022-12-19T07:49:12;16.30;39.50
35680;DHT22;21803;53.586;10.040;2022-12-19T07:51:37;16.30;39.50
35680;DHT22;21803;53.586;10.040;2022-12-19T07:54:03;16.30;39.50
35680;DHT22;21803;53.586;10.040;2022-12-19T07:56:28;16.30;39.60
35680;DHT22;21803;53.586;10.040;2022-12-19T07:58:54;16.30;39.60
35680;DHT22;21803;53.586;10.040;2022-12-19T08:01:19;16.30;39.50
35680;DHT22;21803;53.586;10.040;2022-12-19T08:03:45;16.30;39.60
35680;DHT22;21803;53.586;10.040;2022-12-19T08:06:10;16.30;39.60
35680;DHT22;21803;53.586;10.040;2022-12-19T08:08:36;16.30;39.60
35680;DHT22;21803;53.586;10.040;2022-12-19T08:11:10;16.30;39.60
35680;DHT22;21803;53.586;10.040;2022-12-19T08:13:36;16.30;39.60
35680;DHT22;21803;53.586;10.040;2022-12-19T08:16:02;16.30;39.60
35680;DHT22;21803;53.586;10.040;2022-12-19T08:18:28;16.30;39.60
35680;DHT22;21803;53.586;10.040;2022-12-19T08:20:54;16.30;39.60
35680;DHT22;21803;53.586;10.040;2022-12-19T08:23:21;16.30;39.60
35680;DHT22;21803;53.586;10.040;2022-12-19T08:25:46;16.30;39.60
35680;DHT22;21803;53.586;10.040;2022-12-19T08:28:12;16.30;40.30
35680;DHT22;21803;53.586;10.040;2022-12-19T08:30:38;16.30;39.60
35680;DHT22;21803;53.586;10.040;2022-12-19T08:33:04;16.30;39.60
35680;DHT22;21803;53.586;10.040;2022-12-19T08:35:30;16.30;39.60
35680;DHT22;21803;53.586;10.040;2022-12-19T08:37:55;16.30;39.70
35680;DHT22;21803;53.586;10.040;2022-12-19T08:40:21;16.30;39.60
35680;DHT22;21803;53.586;10.040;2022-12-19T08:42:48;16.30;39.60
35680;DHT22;21803;53.586;10.040;2022-12-19T08:45:14;16.30;39.70
35680;DHT22;21803;53.586;10.040;2022-12-19T08:47:41;16.30;39.60
35680;DHT22;21803;53.586;10.040;2022-12-19T08:50:08;16.30;39.70
35680;DHT22;21803;53.586;10.040;2022-12-19T08:52:33;17.30;40.20
35680;DHT22;21803;53.586;10.040;2022-12-19T08:54:59;16.30;39.80
35680;DHT22;21803;53.586;10.040;2022-12-19T08:57:25;16.30;39.70
35680;DHT22;21803;53.586;10.040;2022-12-19T08:59:50;16.30;39.80
35680;DHT22;21803;53.586;10.040;2022-12-19T09:02:16;16.30;39.70
35680;DHT22;21803;53.586;10.040;2022-12-19T09:04:41;16.30;39.80
35680;DHT22;21803;53.586;10.040;2022-12-19T09:07:07;16.30;39.80
35680;DHT22;21803;53.586;10.040;2022-12-19T09:09:32;16.30;39.80
35680;DHT22;21803;53.586;10.040;2022-12-19T09:11:58;16.30;39.80
35680;DHT22;21803;53.586;10.040;2022-12-19T09:14:23;16.30;39.80
35680;DHT22;21803;53.586;10.040;2022-12-19T09:16:49;16.30;39.80
35680;DHT22;21803;53.586;10.040;2022-12-19T09:19:15;16.30;39.80
35680;DHT22;21803;53.586;10.040;2022-12-19T09:21:41;16.30;39.80
35680;DHT22;21803;53.586;10.040;2022-12-19T09:24:08;16.30;39.90
35680;DHT22;21803;53.586;10.040;2022-12-19T09:26:35;16.30;39.90
35680;DHT22;21803;53.586;10.040;2022-12-19T09:29:02;16.30;39.90
35680;DHT22;21803;53.586;10.040;2022-12-19T09:31:29;16.30;39.90
35680;DHT22;21803;53.586;10.040;2022-12-19T09:33:54;16.30;39.90
35680;DHT22;21803;53.586;10.040;2022-12-19T09:36:22;16.30;39.90
35680;DHT22;21803;53.586;10.040;2022-12-19T09:38:49;16.30;39.90
35680;DHT22;21803;53.586;10.040;2022-12-19T09:46:19;16.30;40.00
35680;DHT22;21803;53.586;10.040;2022-12-19T09:48:45;16.30;39.90
35680;DHT22;21803;53.586;10.040;2022-12-19T09:54:01;16.30;39.90
35680;DHT22;21803;53.586;10.040;2022-12-19T09:56:33;16.30;40.00
35680;DHT22;21803;53.586;10.040;2022-12-19T09:59:28;16.30;40.00
35680;DHT22;21803;53.586;10.040;2022-12-19T10:05:41;16.30;40.00
35680;DHT22;21803;53.586;10.040;2022-12-19T10:08:31;16.30;40.00
35680;DHT22;21803;53.586;10.040;2022-12-19T10:18:56;16.30;40.10
35680;DHT22;21803;53.586;10.040;2022-12-19T10:21:32;16.30;40.10
35680;DHT22;21803;53.586;10.040;2022-12-19T10:26:45;16.30;40.20
35680;DHT22;21803;53.586;10.040;2022-12-19T10:32:12;16.30;40.20
35680;DHT22;21803;53.586;10.040;2022-12-19T10:34:42;16.30;40.30
35680;DHT22;21803;53.586;10.040;2022-12-19T10:37:27;16.30;40.30
35680;DHT22;21803;53.586;10.040;2022-12-19T10:40:18;16.30;40.30
35680;DHT22;21803;53.586;10.040;2022-12-19T10:43:23;16.30;40.30
35680;DHT22;21803;53.586;10.040;2022-12-19T10:45:54;16.30;40.30
35680;DHT22;21803;53.586;10.040;2022-12-19T10:48:22;16.30;40.30
35680;DHT22;21803;53.586;10.040;2022-12-19T10:50:48;16.30;40.30
35680;DHT22;21803;53.586;10.040;2022-12-19T10:53:15;16.30;40.30
35680;DHT22;21803;53.586;10.040;2022-12-19T10:55:47;16.30;40.30
35680;DHT22;21803;53.586;10.040;2022-12-19T10:58:32;16.30;40.30
35680;DHT22;21803;53.586;10.040;2022-12-19T11:01:54;16.30;40.40
35680;DHT22;21803;53.586;10.040;2022-12-19T11:04:32;16.30;40.30
35680;DHT22;21803;53.586;10.040;2022-12-19T11:09:39;16.30;40.30
35680;DHT22;21803;53.586;10.040;2022-12-19T11:12:15;16.30;40.30
35680;DHT22;21803;53.586;10.040;2022-12-19T11:14:50;16.30;40.30
35680;DHT22;21803;53.586;10.040;2022-12-19T11:17:34;16.30;40.40
35680;DHT22;21803;53.586;10.040;2022-12-19T11:20:10;16.30;40.40
35680;DHT22;21803;53.586;10.040;2022-12-19T11:22:36;14.80;39.70
35680;DHT22;21803;53.586;10.040;2022-12-19T11:25:03;16.30;40.40
35680;DHT22;21803;53.586;10.040;2022-12-19T11:27:42;16.30;40.50
35680;DHT22;21803;53.586;10.040;2022-12-19T11:30:22;16.30;40.50
35680;DHT22;21803;53.586;10.040;2022-12-19T11:33:06;16.30;40.50
35680;DHT22;21803;53.586;10.040;2022-12-19T11:35:53;16.30;40.50
35680;DHT22;21803;53.586;10.040;2022-12-19T11:41:14;16.30;40.60
35680;DHT22;21803;53.586;10.040;2022-12-19T11:43:43;16.30;40.50
35680;DHT22;21803;53.586;10.040;2022-12-19T11:46:33;16.30;40.60
35680;DHT22;21803;53.586;10.040;2022-12-19T11:49:09;16.30;40.60
35680;DHT22;21803;53.586;10.040;2022-12-19T11:51:55;16.30;40.60
35680;DHT22;21803;53.586;10.040;2022-12-19T11:54:31;16.30;40.60
35680;DHT22;21803;53.586;10.040;2022-12-19T11:56:57;16.30;40.60
35680;DHT22;21803;53.586;10.040;2022-12-19T11:59:30;16.30;40.60
35680;DHT22;21803;53.586;10.040;2022-12-19T12:02:08;16.30;40.60
35680;DHT22;21803;53.586;10.040;2022-12-19T12:07:05;16.30;40.60
35680;DHT22;21803;53.586;10.040;2022-12-19T12:15:09;16.30;40.60
35680;DHT22;21803;53.586;10.040;2022-12-19T12:20:44;16.30;40.70
35680;DHT22;21803;53.586;10.040;2022-12-19T12:23:24;16.30;40.70
35680;DHT22;21803;53.586;10.040;2022-12-19T12:25:56;16.30;40.70
35680;DHT22;21803;53.586;10.040;2022-12-19T12:31:33;16.30;40.70
35680;DHT22;21803;53.586;10.040;2022-12-19T12:45:38;16.30;40.70
35680;DHT22;21803;53.586;10.040;2022-12-19T12:48:33;16.30;40.70
35680;DHT22;21803;53.586;10.040;2022-12-19T12:51:00;16.30;40.70
35680;DHT22;21803;53.586;10.040;2022-12-19T12:53:31;16.30;41.10
35680;DHT22;21803;53.586;10.040;2022-12-19T12:55:59;16.30;40.80
35680;DHT22;21803;53.586;10.040;2022-12-19T13:01:28;16.30;40.80
35680;DHT22;21803;53.586;10.040;2022-12-19T13:04:17;16.30;40.80
35680;DHT22;21803;53.586;10.040;2022-12-19T13:09:33;16.30;40.90
35680;DHT22;21803;53.586;10.040;2022-12-19T13:12:26;16.30;40.90
35680;DHT22;21803;53.586;10.040;2022-12-19T13:25:47;16.30;41.00
35680;DHT22;21803;53.586;10.040;2022-12-19T13:39:28;16.30;41.20
35680;DHT22;21803;53.586;10.040;2022-12-19T13:42:09;16.30;41.20
35680;DHT22;21803;53.586;10.040;2022-12-19T13:44:55;16.30;41.20
35680;DHT22;21803;53.586;10.040;2022-12-19T13:47:23;16.30;41.20
35680;DHT22;21803;53.586;10.040;2022-12-19T13:49:49;16.30;41.20
35680;DHT22;21803;53.586;10.040;2022-12-19T13:52:16;16.30;41.20
35680;DHT22;21803;53.586;10.040;2022-12-19T13:54:50;16.30;41.20
35680;DHT22;21803;53.586;10.040;2022-12-19T13:57:29;16.30;41.20
35680;DHT22;21803;53.586;10.040;2022-12-19T14:00:01;16.30;41.20
35680;DHT22;21803;53.586;10.040;2022-12-19T14:02:33;16.30;41.20
35680;DHT22;21803;53.586;10.040;2022-12-19T14:04:59;16.30;41.20
35680;DHT22;21803;53.586;10.040;2022-12-19T14:07:35;16.30;41.20
35680;DHT22;21803;53.586;10.040;2022-12-19T14:10:03;16.30;41.30
35680;DHT22;21803;53.586;10.040;2022-12-19T14:12:33;16.30;41.30
35680;DHT22;21803;53.586;10.040;2022-12-19T14:15:32;16.30;41.30
35680;DHT22;21803;53.586;10.040;2022-12-19T14:18:00;16.30;41.30
35680;DHT22;21803;53.586;10.040;2022-12-19T14:20:27;16.30;41.30
35680;DHT22;21803;53.586;10.040;2022-12-19T14:22:59;16.30;41.30
35680;DHT22;21803;53.586;10.040;2022-12-19T14:25:34;17.30;41.80
35680;DHT22;21803;53.586;10.040;2022-12-19T14:28:05;18.80;42.50
35680;DHT22;21803;53.586;10.040;2022-12-19T14:30:34;16.30;41.30
35680;DHT22;21803;53.586;10.040;2022-12-19T14:33:14;16.30;41.40
35680;DHT22;21803;53.586;10.040;2022-12-19T14:35:49;16.30;41.40
35680;DHT22;21803;53.586;10.040;2022-12-19T14:38:23;16.30;41.40
35680;DHT22;21803;53.586;10.040;2022-12-19T14:40:49;16.30;41.40
35680;DHT22;21803;53.586;10.040;2022-12-19T14:43:19;16.30;41.40
35680;DHT22;21803;53.586;10.040;2022-12-19T14:49:00;16.30;41.50
35680;DHT22;21803;53.586;10.040;2022-12-19T14:51:34;16.30;41.50
35680;DHT22;21803;53.586;10.040;2022-12-19T15:01:59;16.30;41.60
35680;DHT22;21803;53.586;10.040;2022-12-19T15:04:30;16.40;41.70
35680;DHT22;21803;53.586;10.040;2022-12-19T15:06:59;16.30;41.60
35680;DHT22;21803;53.586;10.040;2022-12-19T15:09:26;16.30;41.60
35680;DHT22;21803;53.586;10.040;2022-12-19T15:11:55;16.30;42.20
35680;DHT22;21803;53.586;10.040;2022-12-19T15:14:42;16.30;41.60
35680;DHT22;21803;53.586;10.040;2022-12-19T15:17:24;16.40;41.70
35680;DHT22;21803;53.586;10.040;2022-12-19T15:19:50;16.30;41.60
35680;DHT22;21803;53.586;10.040;2022-12-19T15:22:16;16.40;41.80
35680;DHT22;21803;53.586;10.040;2022-12-19T15:24:42;16.30;41.80
35680;DHT22;21803;53.586;10.040;2022-12-19T15:27:14;16.30;41.90
35680;DHT22;21803;53.586;10.040;2022-12-19T15:29:41;16.30;41.90
35680;DHT22;21803;53.586;10.040;2022-12-19T15:32:14;16.40;42.00
35680;DHT22;21803;53.586;10.040;2022-12-19T15:34:40;16.40;42.10
35680;DHT22;21803;53.586;10.040;2022-12-19T15:37:09;16.30;42.00
35680;DHT22;21803;53.586;10.040;2022-12-19T15:39:35;16.90;42.30
35680;DHT22;21803;53.586;10.040;2022-12-19T15:42:01;16.40;42.10
35680;DHT22;21803;53.586;10.040;2022-12-19T15:44:31;16.30;42.10
35680;DHT22;21803;53.586;10.040;2022-12-19T15:46:59;16.30;42.10
35680;DHT22;21803;53.586;10.040;2022-12-19T15:49:24;16.30;42.70
35680;DHT22;21803;53.586;10.040;2022-12-19T15:51:50;16.40;42.10
35680;DHT22;21803;53.586;10.040;2022-12-19T15:54:16;16.30;42.10
35680;DHT22;21803;53.586;10.040;2022-12-19T15:56:45;16.30;42.10
35680;DHT22;21803;53.586;10.040;2022-12-19T15:59:21;16.30;42.10
35680;DHT22;21803;53.586;10.040;2022-12-19T16:01:47;16.30;42.10
35680;DHT22;21803;53.586;10.040;2022-12-19T16:04:13;16.30;42.10
35680;DHT22;21803;53.586;10.040;2022-12-19T16:06:39;16.40;42.20
35680;DHT22;21803;53.586;10.040;2022-12-19T16:09:19;16.40;42.20
35680;DHT22;21803;53.586;10.040;2022-12-19T16:11:45;16.30;42.20
35680;DHT22;21803;53.586;10.040;2022-12-19T16:14:11;16.30;42.10
35680;DHT22;21803;53.586;10.040;2022-12-19T16:16:38;16.30;42.20
35680;DHT22;21803;53.586;10.040;2022-12-19T16:21:48;16.30;42.20
35680;DHT22;21803;53.586;10.040;2022-12-19T16:24:14;16.30;42.10
35680;DHT22;21803;53.586;10.040;2022-12-19T16:26:40;16.40;42.20
35680;DHT22;21803;53.586;10.040;2022-12-19T16:29:17;16.40;42.20
35680;DHT22;21803;53.586;10.040;2022-12-19T16:31:43;16.40;42.20
35680;DHT22;21803;53.586;10.040;2022-12-19T16:34:17;16.40;42.20
35680;DHT22;21803;53.586;10.040;2022-12-19T16:36:44;16.40;42.20
35680;DHT22;21803;53.586;10.040;2022-12-19T16:39:09;16.40;42.20
35680;DHT22;21803;53.586;10.040;2022-12-19T16:41:35;16.40;42.20
35680;DHT22;21803;53.586;10.040;2022-12-19T16:44:01;16.40;42.80
35680;DHT22;21803;53.586;10.040;2022-12-19T16:46:26;16.40;42.20
35680;DHT22;21803;53.586;10.040;2022-12-19T16:48:58;16.40;42.30
35680;DHT22;21803;53.586;10.040;2022-12-19T16:51:25;16.40;42.30
35680;DHT22;21803;53.586;10.040;2022-12-19T16:53:53;16.40;42.20
35680;DHT22;21803;53.586;10.040;2022-12-19T16:56:31;16.30;42.20
35680;DHT22;21803;53.586;10.040;2022-12-19T16:59:00;16.40;42.30
35680;DHT22;21803;53.586;10.040;2022-12-19T17:01:26;16.40;42.30
35680;DHT22;21803;53.586;10.040;2022-12-19T17:03:52;16.40;42.30
35680;DHT22;21803;53.586;10.040;2022-12-19T17:06:19;16.40;42.30
35680;DHT22;21803;53.586;10.040;2022-12-19T17:08:45;16.40;42.30
35680;DHT22;21803;53.586;10.040;2022-12-19T17:11:24;16.40;42.30
35680;DHT22;21803;53.586;10.040;2022-12-19T17:14:02;16.40;42.30
35680;DHT22;21803;53.586;10.040;2022-12-19T17:16:29;16.30;42.30
35680;DHT22;21803;53.586;10.040;2022-12-19T17:18:56;16.40;42.40
35680;DHT22;21803;53.586;10.040;2022-12-19T17:21:22;16.40;42.40
35680;DHT22;21803;53.586;10.040;2022-12-19T17:23:48;16.40;42.40
35680;DHT22;21803;53.586;10.040;2022-12-19T17:26:15;16.40;42.40
35680;DHT22;21803;53.586;10.040;2022-12-19T17:28:41;16.40;42.40
35680;DHT22;21803;53.586;10.040;2022-12-19T17:31:12;16.40;43.00
35680;DHT22;21803;53.586;10.040;2022-12-19T17:33:41;16.40;42.40
35680;DHT22;21803;53.586;10.040;2022-12-19T17:36:09;16.40;42.50
35680;DHT22;21803;53.586;10.040;2022-12-19T17:38:35;16.40;42.50
35680;DHT22;21803;53.586;10.040;2022-12-19T17:41:01;17.30;42.90
35680;DHT22;21803;53.586;10.040;2022-12-19T17:43:26;16.40;42.50
35680;DHT22;21803;53.586;10.040;2022-12-19T17:45:52;16.40;42.50